Time;durP1;ratioP1;P1;durP2;ratioP2;P2;SDS_P1;SDS_P2;PMS_P1;PMS_P2;Temp;Humidity;BMP_temperature;BMP_pressure;BME280_temperature;BME280_humidity;BME280_pressure;Samples;Min_cycle;Max_cycle;Signal;HPM_P1;HPM_P2
2023/08/19 00:01:32;;;;;;;34.75;25.55;;;;;;;-146.82;100.00;71671.09;5071725;28;20059;-76
2023/08/19 00:03:59;;;;;;;37.13;25.58;;;;;;;-146.82;100.00;71671.09;5072948;28;20045;-76
2023/08/19 00:06:34;;;;;;;41.65;25.95;;;;;;;-146.82;100.00;71671.09;5072867;28;20032;-77
2023/08/19 00:09:01;;;;;;;43.55;26.75;;;;;;;-146.82;100.00;71671.09;5073328;28;20481;-75
2023/08/19 00:11:27;;;;;;;39.60;27.30;;;;;;;-146.82;100.00;71671.09;5073104;28;20028;-76
2023/08/19 00:13:52;;;;;;;43.95;27.38;;;;;;;-146.82;100.00;71671.09;5075421;28;20020;-76
2023/08/19 00:16:18;;;;;;;41.47;27.95;;;;;;;-146.82;100.00;71671.09;5076743;28;20025;-77
2023/08/19 00:18:43;;;;;;;43.40;28.67;;;;;;;-146.82;100.00;71671.09;5094837;28;20020;-77
2023/08/19 00:21:08;;;;;;;43.85;29.02;;;;;;;-146.82;100.00;71671.09;5077651;28;20023;-78
2023/08/19 00:23:34;;;;;;;42.53;28.23;;;;;;;-146.82;100.00;71671.09;5078461;28;20408;-78
2023/08/19 00:25:59;;;;;;;48.33;28.30;;;;;;;-146.82;100.00;71671.09;5077814;28;20063;-78
2023/08/19 00:28:25;;;;;;;41.28;28.25;;;;;;;-146.82;100.00;71671.09;5076687;28;20354;-77
2023/08/19 00:30:51;;;;;;;40.70;27.95;;;;;;;-146.82;100.00;71671.09;5075120;28;20020;-80
2023/08/19 00:33:16;;;;;;;46.35;28.08;;;;;;;-146.82;100.00;71671.09;5076384;28;20032;-78
2023/08/19 00:35:42;;;;;;;39.65;26.67;;;;;;;-146.82;100.00;71671.09;5076312;28;20028;-77
2023/08/19 00:38:08;;;;;;;42.15;27.73;;;;;;;-146.82;100.00;71671.09;5076249;28;20017;-76
2023/08/19 00:40:33;;;;;;;37.92;26.13;;;;;;;-146.82;100.00;71671.09;5076225;28;20085;-77
2023/08/19 00:42:58;;;;;;;36.65;26.52;;;;;;;-146.82;100.00;71671.09;5076514;28;20024;-75
2023/08/19 00:45:24;;;;;;;40.95;28.08;;;;;;;-146.82;100.00;71671.09;5091854;28;20056;-76
2023/08/19 00:47:49;;;;;;;38.95;26.98;;;;;;;-146.82;100.00;71671.09;5092038;28;20101;-78
2023/08/19 00:50:15;;;;;;;38.60;27.08;;;;;;;-146.82;100.00;71671.09;5076018;28;20088;-76
2023/08/19 00:52:41;;;;;;;37.72;26.65;;;;;;;-146.82;100.00;71671.09;5076177;28;20541;-76
2023/08/19 00:55:07;;;;;;;39.15;26.67;;;;;;;-146.82;100.00;71671.09;5076223;28;20016;-77
2023/08/19 00:57:34;;;;;;;44.45;27.63;;;;;;;-146.82;100.00;71671.09;5091481;28;20539;-76
2023/08/19 01:00:00;;;;;;;38.70;27.17;;;;;;;-146.82;100.00;71671.09;5076067;28;20024;-77
2023/08/19 01:02:27;;;;;;;36.80;25.63;;;;;;;-146.82;100.00;71671.09;5075779;28;20021;-77
2023/08/19 01:04:52;;;;;;;39.38;25.83;;;;;;;-146.82;100.00;71671.09;5075765;28;20120;-78
2023/08/19 01:07:18;;;;;;;43.40;27.58;;;;;;;-146.82;100.00;71671.09;5075845;28;20103;-76
2023/08/19 01:09:49;;;;;;;44.33;27.95;;;;;;;-146.82;100.00;71671.09;5075867;28;20059;-75
2023/08/19 01:12:40;;;;;;;42.42;28.67;;;;;;;-146.82;100.00;71671.09;5074307;28;20078;-78
2023/08/19 01:15:19;;;;;;;44.08;27.02;;;;;;;-146.82;100.00;71671.09;5091376;28;20099;-77
2023/08/19 01:17:49;;;;;;;41.70;27.52;;;;;;;-146.82;100.00;71671.09;5091435;28;20024;-76
2023/08/19 01:20:15;;;;;;;46.13;28.98;;;;;;;-146.82;100.00;71671.09;5075373;28;20063;-76
2023/08/19 01:22:43;;;;;;;42.40;26.95;;;;;;;-146.82;100.00;71671.09;5075622;28;20048;-76
2023/08/19 01:25:09;;;;;;;47.05;28.33;;;;;;;-146.82;100.00;71671.09;5074735;28;20063;-77
2023/08/19 01:27:34;;;;;;;41.65;27.02;;;;;;;-146.82;100.00;71671.09;5074027;28;20052;-76
2023/08/19 01:30:00;;;;;;;43.58;28.48;;;;;;;-146.82;100.00;71671.09;5075514;28;20031;-77
2023/08/19 01:32:25;;;;;;;45.80;29.52;;;;;;;-146.82;100.00;71671.09;5091140;28;20054;-76
2023/08/19 01:34:51;;;;;;;43.05;29.00;;;;;;;-146.82;100.00;71671.09;5075488;28;20481;-76
2023/08/19 01:37:38;;;;;;;43.78;28.38;;;;;;;-146.82;100.00;71671.09;5075292;28;20021;-77
2023/08/19 01:40:04;;;;;;;43.95;28.45;;;;;;;-146.82;100.00;71671.09;5074812;28;20032;-75
2023/08/19 01:42:30;;;;;;;41.03;27.60;;;;;;;-146.82;100.00;71671.09;5057352;28;20098;-77
2023/08/19 01:44:56;;;;;;;44.22;28.25;;;;;;;-146.82;100.00;71671.09;5090795;28;20115;-78
2023/08/19 01:47:22;;;;;;;43.25;27.90;;;;;;;-146.82;100.00;71671.09;5090704;28;20059;-77
2023/08/19 01:49:47;;;;;;;47.90;28.80;;;;;;;-146.82;100.00;71671.09;5073670;28;20040;-76
2023/08/19 01:52:13;;;;;;;43.80;29.80;;;;;;;-146.82;100.00;71671.09;5090399;28;20453;-76
2023/08/19 01:54:39;;;;;;;44.42;28.98;;;;;;;-146.82;100.00;71671.09;5074669;28;20457;-75
2023/08/19 01:57:05;;;;;;;47.65;30.85;;;;;;;-146.82;100.00;71671.09;5073523;28;20496;-78
2023/08/19 01:59:31;;;;;;;46.38;30.75;;;;;;;-146.82;100.00;71671.09;5074729;28;20033;-78
2023/08/19 02:01:56;;;;;;;48.80;30.63;;;;;;;-146.82;100.00;71671.09;5074812;28;20024;-76
2023/08/19 02:04:21;;;;;;;48.70;30.45;;;;;;;-146.82;100.00;71671.09;5074437;28;20448;-76
2023/08/19 02:06:47;;;;;;;43.30;30.30;;;;;;;-146.82;100.00;71671.09;5090222;28;20021;-77
2023/08/19 02:09:12;;;;;;;44.17;30.05;;;;;;;-146.82;100.00;71671.09;5073077;28;20526;-76
2023/08/19 02:11:37;;;;;;;47.55;31.30;;;;;;;-146.82;100.00;71671.09;5090304;28;20111;-77
2023/08/19 02:14:03;;;;;;;44.90;30.52;;;;;;;-146.82;100.00;71671.09;5090247;28;20032;-77
2023/08/19 02:16:29;;;;;;;45.22;30.60;;;;;;;-146.82;100.00;71671.09;5074454;28;20028;-77
2023/08/19 02:18:57;;;;;;;45.60;30.17;;;;;;;-146.82;100.00;71671.09;5074187;28;20442;-77
2023/08/19 02:21:22;;;;;;;44.90;30.65;;;;;;;-146.82;100.00;71671.09;5074170;28;20029;-76
2023/08/19 02:23:47;;;;;;;49.85;32.25;;;;;;;-146.82;100.00;71671.09;5074143;28;20036;-78
2023/08/19 02:26:13;;;;;;;49.03;31.50;;;;;;;-146.82;100.00;71671.09;5072967;28;20031;-77
2023/08/19 02:28:38;;;;;;;45.58;30.85;;;;;;;-146.82;100.00;71671.09;5074054;28;20036;-77
2023/08/19 02:31:04;;;;;;;45.42;30.48;;;;;;;-146.82;100.00;71671.09;5074044;28;20028;-77
2023/08/19 02:33:29;;;;;;;48.20;31.10;;;;;;;-146.82;100.00;71671.09;5074073;28;20150;-76
2023/08/19 02:35:55;;;;;;;45.38;30.45;;;;;;;-146.82;100.00;71671.09;5073853;28;20036;-77
2023/08/19 02:38:20;;;;;;;48.60;30.58;;;;;;;-146.82;100.00;71671.09;5072601;28;20167;-76
2023/08/19 02:40:52;;;;;;;48.00;31.65;;;;;;;-146.82;100.00;71671.09;5073975;28;20028;-76
2023/08/19 02:43:18;;;;;;;47.90;31.27;;;;;;;-146.82;100.00;71671.09;5074196;28;20031;-75
2023/08/19 02:45:44;;;;;;;44.95;31.00;;;;;;;-146.82;100.00;71671.09;5073759;28;20028;-75
2023/08/19 02:48:09;;;;;;;48.22;32.85;;;;;;;-146.82;100.00;71671.09;5074034;28;20112;-76
2023/08/19 02:50:34;;;;;;;51.28;32.55;;;;;;;-146.82;100.00;71671.09;5073744;28;20028;-76
2023/08/19 02:53:00;;;;;;;46.83;29.50;;;;;;;-146.82;100.00;71671.09;5073641;28;20024;-77
2023/08/19 02:55:25;;;;;;;49.40;29.25;;;;;;;-146.82;100.00;71671.09;5072391;28;20020;-78
2023/08/19 02:57:51;;;;;;;44.05;29.67;;;;;;;-146.82;100.00;71671.09;5073623;28;20036;-77
2023/08/19 03:00:16;;;;;;;47.05;31.42;;;;;;;-146.82;100.00;71671.09;5089062;28;20106;-77
2023/08/19 03:02:46;;;;;;;49.15;31.63;;;;;;;-146.82;100.00;71671.09;5073704;28;20032;-76
2023/08/19 03:05:12;;;;;;;43.67;28.75;;;;;;;-146.82;100.00;71671.09;5073464;28;20098;-76
2023/08/19 03:07:37;;;;;;;49.20;29.45;;;;;;;-146.82;100.00;71671.09;5073689;28;20091;-76
2023/08/19 03:10:03;;;;;;;47.38;29.63;;;;;;;-146.82;100.00;71671.09;5073985;28;20091;-76
2023/08/19 03:12:28;;;;;;;47.70;28.45;;;;;;;-146.82;100.00;71671.09;5073646;28;20434;-79
2023/08/19 03:14:54;;;;;;;45.33;29.73;;;;;;;-146.82;100.00;71671.09;5072193;28;20422;-77
2023/08/19 03:17:19;;;;;;;53.75;30.73;;;;;;;-146.82;100.00;71671.09;5073551;28;20462;-78
2023/08/19 03:19:45;;;;;;;46.20;28.88;;;;;;;-146.82;100.00;71671.09;5073317;28;20031;-77
2023/08/19 03:22:11;;;;;;;49.03;29.08;;;;;;;-146.82;100.00;71671.09;5073583;28;20029;-76
2023/08/19 03:24:36;;;;;;;50.15;30.50;;;;;;;-146.82;100.00;71671.09;5073232;28;20377;-75
2023/08/19 03:27:02;;;;;;;53.03;30.30;;;;;;;-146.82;100.00;71671.09;5073579;28;20036;-77
2023/08/19 03:29:27;;;;;;;53.55;30.52;;;;;;;-146.82;100.00;71671.09;5073602;28;20044;-77
2023/08/19 03:31:53;;;;;;;71.22;35.08;;;;;;;-146.82;100.00;71671.09;5073207;28;20360;-77
2023/08/19 03:34:18;;;;;;;47.90;30.88;;;;;;;-146.82;100.00;71671.09;5073209;28;20036;-76
2023/08/19 03:36:43;;;;;;;49.50;30.60;;;;;;;-146.82;100.00;71671.09;5073146;28;20381;-76
2023/08/19 03:39:09;;;;;;;45.85;29.88;;;;;;;-146.82;100.00;71671.09;5073311;28;20024;-76
2023/08/19 03:41:34;;;;;;;37.90;26.35;;;;;;;-146.82;100.00;71671.09;5073360;28;20416;-75
2023/08/19 03:43:59;;;;;;;48.38;28.90;;;;;;;-146.82;100.00;71671.09;5073283;28;20025;-75
2023/08/19 03:46:25;;;;;;;52.95;26.08;;;;;;;-146.82;100.00;71671.09;5073269;28;20416;-76
2023/08/19 03:48:50;;;;;;;53.60;28.45;;;;;;;-146.82;100.00;71671.09;5075944;28;20032;-77
2023/08/19 03:51:16;;;;;;;63.65;28.10;;;;;;;-146.82;100.00;71671.09;5076954;28;20057;-76
2023/08/19 03:53:41;;;;;;;63.55;27.83;;;;;;;-146.82;100.00;71671.09;5075753;28;20039;-75
2023/08/19 03:56:06;;;;;;;41.97;25.42;;;;;;;-146.82;100.00;71671.09;5077126;28;20136;-76
2023/08/19 03:58:32;;;;;;;37.50;24.73;;;;;;;-146.82;100.00;71671.09;5077257;28;20047;-77
2023/08/19 04:01:07;;;;;;;61.22;30.23;;;;;;;-146.82;100.00;71671.09;5075821;28;20025;-77
2023/08/19 04:03:33;;;;;;;49.15;27.77;;;;;;;-146.82;100.00;71671.09;5075824;28;20032;-77
2023/08/19 04:05:58;;;;;;;56.53;28.77;;;;;;;-146.82;100.00;71671.09;5076833;28;20454;-77
2023/08/19 04:08:23;;;;;;;67.43;28.88;;;;;;;-146.82;100.00;71671.09;5075811;28;20488;-77
2023/08/19 04:10:49;;;;;;;99.65;29.67;;;;;;;-146.82;100.00;71671.09;5077423;28;20028;-78
2023/08/19 04:13:16;;;;;;;94.50;30.60;;;;;;;-146.82;100.00;71671.09;5077971;28;20032;-78
2023/08/19 04:15:41;;;;;;;67.57;29.90;;;;;;;-146.82;100.00;71671.09;5077687;28;20032;-78
2023/08/19 04:18:08;;;;;;;75.60;29.92;;;;;;;-146.82;100.00;71671.09;5076812;28;20031;-77
2023/08/19 04:20:38;;;;;;;77.90;30.42;;;;;;;-146.82;100.00;71671.09;5076506;28;20029;-77
2023/08/19 04:23:04;;;;;;;71.28;30.30;;;;;;;-146.82;100.00;71671.09;5077391;28;20036;-78
2023/08/19 04:25:30;;;;;;;54.47;30.67;;;;;;;-146.82;100.00;71671.09;5076728;28;20033;-77
2023/08/19 04:27:55;;;;;;;49.55;29.25;;;;;;;-146.82;100.00;71671.09;5076487;28;20462;-77
2023/08/19 04:30:21;;;;;;;55.83;31.15;;;;;;;-146.82;100.00;71671.09;5092405;28;20024;-77
2023/08/19 04:32:47;;;;;;;58.15;30.02;;;;;;;-146.82;100.00;71671.09;5076396;28;20032;-77
2023/08/19 04:35:12;;;;;;;59.92;30.00;;;;;;;-146.82;100.00;71671.09;5075066;28;20475;-76
2023/08/19 04:37:38;;;;;;;81.72;30.55;;;;;;;-146.82;100.00;71671.09;5092410;28;20024;-76
2023/08/19 04:40:09;;;;;;;48.33;27.58;;;;;;;-146.82;100.00;71671.09;5076212;28;20381;-76
2023/08/19 04:42:35;;;;;;;54.05;33.58;;;;;;;-146.82;100.00;71671.09;5076420;28;20052;-76
2023/08/19 04:45:00;;;;;;;48.38;26.77;;;;;;;-146.82;100.00;71671.09;5076242;28;20435;-78
2023/08/19 04:47:26;;;;;;;52.33;26.92;;;;;;;-146.82;100.00;71671.09;5091741;28;20115;-76
2023/08/19 04:49:51;;;;;;;39.85;25.30;;;;;;;-146.82;100.00;71671.09;5076114;28;20410;-77
2023/08/19 04:52:16;;;;;;;46.30;23.02;;;;;;;-146.82;100.00;71671.09;5076181;28;20099;-76
2023/08/19 04:54:42;;;;;;;41.33;22.98;;;;;;;-146.82;100.00;71671.09;5076102;28;20465;-77
2023/08/19 04:57:07;;;;;;;56.65;24.90;;;;;;;-146.82;100.00;71671.09;5075841;28;20098;-75
2023/08/19 04:59:32;;;;;;;29.58;20.10;;;;;;;-146.82;100.00;71671.09;5074359;28;20031;-77
2023/08/19 05:01:58;;;;;;;29.38;20.38;;;;;;;-146.82;100.00;71671.09;5075719;28;20078;-76
2023/08/19 05:04:23;;;;;;;34.95;20.60;;;;;;;-146.82;100.00;71671.09;5075663;28;20420;-77
2023/08/19 05:06:49;;;;;;;30.25;20.08;;;;;;;-146.82;100.00;71671.09;5076303;28;20028;-76
2023/08/19 05:09:14;;;;;;;36.28;20.10;;;;;;;-146.82;100.00;71671.09;5076006;28;20025;-77
2023/08/19 05:11:39;;;;;;;27.60;18.92;;;;;;;-146.82;100.00;71671.09;5091515;28;20350;-76
2023/08/19 05:14:05;;;;;;;24.70;19.48;;;;;;;-146.82;100.00;71671.09;5074367;28;20111;-77
2023/08/19 05:16:30;;;;;;;39.03;18.42;;;;;;;-146.82;100.00;71671.09;5075511;28;20033;-76
2023/08/19 05:19:04;;;;;;;25.67;19.50;;;;;;;-146.82;100.00;71671.09;5075390;28;20032;-77
2023/08/19 05:21:30;;;;;;;34.22;18.55;;;;;;;-146.82;100.00;71671.09;5074232;28;20056;-76
2023/08/19 05:23:55;;;;;;;42.20;20.00;;;;;;;-146.82;100.00;71671.09;5075833;28;20055;-77
2023/08/19 05:26:20;;;;;;;25.02;18.65;;;;;;;-146.82;100.00;71671.09;5075649;28;20067;-78
2023/08/19 05:28:46;;;;;;;23.17;19.02;;;;;;;-146.82;100.00;71671.09;5075431;28;20024;-77
2023/08/19 05:31:11;;;;;;;43.25;18.85;;;;;;;-146.82;100.00;71671.09;5075306;28;20036;-76
2023/08/19 05:33:36;;;;;;;36.25;18.48;;;;;;;-146.82;100.00;71671.09;5090933;28;20028;-76
2023/08/19 05:36:02;;;;;;;32.60;18.70;;;;;;;-146.82;100.00;71671.09;5075307;28;20085;-77
2023/08/19 05:38:27;;;;;;;19.63;17.23;;;;;;;-146.82;100.00;71671.09;5075235;28;20472;-77
2023/08/19 05:40:53;;;;;;;17.30;15.50;;;;;;;-146.82;100.00;71671.09;5075116;28;20104;-78
2023/08/19 05:43:18;;;;;;;18.25;16.02;;;;;;;-146.82;100.00;71671.09;5075158;28;20051;-76
2023/08/19 05:45:43;;;;;;;19.52;16.50;;;;;;;-146.82;100.00;71671.09;5090633;28;20052;-75
2023/08/19 05:48:09;;;;;;;21.13;15.98;;;;;;;-146.82;100.00;71671.09;5074930;28;20385;-77
2023/08/19 05:50:34;;;;;;;18.67;16.23;;;;;;;-146.82;100.00;71671.09;5073757;28;20101;-76
2023/08/19 05:52:59;;;;;;;21.38;17.60;;;;;;;-146.82;100.00;71671.09;5074752;28;20060;-76
2023/08/19 05:55:25;;;;;;;19.80;16.48;;;;;;;-146.82;100.00;71671.09;5075108;28;20025;-76
2023/08/19 05:57:50;;;;;;;20.23;17.38;;;;;;;-146.82;100.00;71671.09;5074704;28;20052;-76
2023/08/19 06:00:16;;;;;;;18.85;16.35;;;;;;;-146.82;100.00;71671.09;5074582;28;20024;-78
2023/08/19 06:02:42;;;;;;;18.75;16.75;;;;;;;-146.82;100.00;71671.09;5074463;28;20545;-75
2023/08/19 06:05:08;;;;;;;21.70;17.20;;;;;;;-146.82;100.00;71671.09;5074518;28;20047;-76
2023/08/19 06:07:33;;;;;;;21.85;17.75;;;;;;;-146.82;100.00;71671.09;5073389;28;20028;-75
2023/08/19 06:09:59;;;;;;;21.50;17.17;;;;;;;-146.82;100.00;71671.09;5073931;28;20020;-76
2023/08/19 06:12:24;;;;;;;20.00;17.58;;;;;;;-146.82;100.00;71671.09;5074436;28;20104;-76
2023/08/19 06:14:49;;;;;;;18.05;16.15;;;;;;;-146.82;100.00;71671.09;5073414;28;20027;-77
2023/08/19 06:17:15;;;;;;;18.60;16.35;;;;;;;-146.82;100.00;71671.09;5072950;28;20033;-76
2023/08/19 06:19:41;;;;;;;19.15;17.10;;;;;;;-146.82;100.00;71671.09;5074288;28;20111;-77
2023/08/19 06:22:06;;;;;;;17.02;15.32;;;;;;;-146.82;100.00;71671.09;5074487;28;20032;-76
2023/08/19 06:24:32;;;;;;;19.13;16.95;;;;;;;-146.82;100.00;71671.09;5074446;28;20025;-77
2023/08/19 06:26:57;;;;;;;20.00;17.02;;;;;;;-146.82;100.00;71671.09;5090064;28;20377;-77
2023/08/19 06:29:22;;;;;;;20.48;18.02;;;;;;;-146.82;100.00;71671.09;5074077;28;20093;-77
2023/08/19 06:31:48;;;;;;;17.92;16.02;;;;;;;-146.82;100.00;71671.09;5074010;28;20047;-77
2023/08/19 06:34:14;;;;;;;17.60;15.73;;;;;;;-146.82;100.00;71671.09;5073974;28;20023;-77
2023/08/19 06:36:41;;;;;;;21.30;17.70;;;;;;;-146.82;100.00;71671.09;5074288;28;20021;-76
2023/08/19 06:39:07;;;;;;;16.70;15.05;;;;;;;-146.82;100.00;71671.09;5074080;28;20029;-75
2023/08/19 06:41:39;;;;;;;14.05;12.40;;;;;;;-146.82;100.00;71671.09;5074096;28;20032;-76
2023/08/19 06:44:07;;;;;;;13.30;11.32;;;;;;;-146.82;100.00;71671.09;5074601;28;20022;-76
2023/08/19 06:46:32;;;;;;;12.02;10.88;;;;;;;-146.82;100.00;71671.09;5073943;28;20440;-76
2023/08/19 06:48:58;;;;;;;13.70;10.88;;;;;;;-146.82;100.00;71671.09;5072579;28;20119;-75
2023/08/19 06:51:25;;;;;;;12.88;11.48;;;;;;;-146.82;100.00;71671.09;5074071;28;20037;-77
2023/08/19 06:53:51;;;;;;;12.25;11.18;;;;;;;-146.82;100.00;71671.09;5089819;28;20025;-77
2023/08/19 06:56:28;;;;;;;11.90;10.80;;;;;;;-146.82;100.00;71671.09;5073780;28;20081;-77
2023/08/19 06:59:12;;;;;;;11.77;10.68;;;;;;;-146.82;100.00;71671.09;5073503;28;20469;-76
2023/08/19 07:01:40;;;;;;;13.45;12.13;;;;;;;-146.82;100.00;71671.09;5089360;28;20028;-75
2023/08/19 07:04:06;;;;;;;13.23;11.95;;;;;;;-146.82;100.00;71671.09;5072330;28;20075;-77
2023/08/19 07:06:32;;;;;;;13.15;11.00;;;;;;;-146.82;100.00;71671.09;5055674;28;20056;-77
2023/08/19 07:09:00;;;;;;;12.73;11.40;;;;;;;-146.82;100.00;71671.09;5073705;28;20477;-76
2023/08/19 07:11:26;;;;;;;10.50;9.60;;;;;;;-146.82;100.00;71671.09;5073435;28;20028;-77
2023/08/19 07:13:51;;;;;;;11.05;9.95;;;;;;;-146.82;100.00;71671.09;5073632;28;20035;-76
2023/08/19 07:16:18;;;;;;;12.07;9.90;;;;;;;-146.82;100.00;71671.09;5073453;28;20107;-77
2023/08/19 07:18:47;;;;;;;11.25;9.85;;;;;;;-146.82;100.00;71671.09;5073508;28;20059;-78
2023/08/19 07:21:13;;;;;;;11.27;10.02;;;;;;;-146.82;100.00;71671.09;5088444;28;20025;-77
2023/08/19 07:23:45;;;;;;;10.85;8.27;;;;;;;-146.82;100.00;71671.09;5073251;28;20024;-78
2023/08/19 07:26:11;;;;;;;9.10;8.20;;;;;;;-146.82;100.00;71671.09;5088937;28;20021;-77
2023/08/19 07:28:37;;;;;;;9.23;8.43;;;;;;;-146.82;100.00;71671.09;5073690;28;20025;-76
2023/08/19 07:31:04;;;;;;;10.20;9.40;;;;;;;-146.82;100.00;71671.09;5073774;28;20024;-79
2023/08/19 07:33:29;;;;;;;10.25;9.32;;;;;;;-146.82;100.00;71671.09;5073638;28;20035;-77
2023/08/19 07:35:55;;;;;;;8.98;8.07;;;;;;;-146.82;100.00;71671.09;5073398;28;20108;-75
2023/08/19 07:38:20;;;;;;;9.45;8.48;;;;;;;-146.82;100.00;71671.09;5073215;28;20024;-76
2023/08/19 07:40:46;;;;;;;11.40;8.68;;;;;;;-146.82;100.00;71671.09;5072096;28;20048;-77
2023/08/19 07:43:11;;;;;;;9.07;8.32;;;;;;;-146.82;100.00;71671.09;5073313;28;20091;-79
2023/08/19 07:45:36;;;;;;;8.90;8.05;;;;;;;-146.82;100.00;71671.09;5072143;28;20028;-75
2023/08/19 07:48:02;;;;;;;11.50;9.82;;;;;;;-146.82;100.00;71671.09;5073345;28;20083;-75
2023/08/19 07:50:28;;;;;;;10.73;9.65;;;;;;;-146.82;100.00;71671.09;5073560;28;20024;-75
2023/08/19 07:52:53;;;;;;;10.98;9.75;;;;;;;-146.82;100.00;71671.09;5088784;28;20082;-77
2023/08/19 07:55:19;;;;;;;10.55;9.55;;;;;;;-146.82;100.00;71671.09;5073586;28;20075;-77
2023/08/19 07:57:44;;;;;;;9.68;8.88;;;;;;;-146.82;100.00;71671.09;5071849;28;20032;-76
2023/08/19 08:00:10;;;;;;;10.05;9.00;;;;;;;-146.82;100.00;71671.09;5073254;28;20059;-78
2023/08/19 08:02:35;;;;;;;9.75;7.93;;;;;;;-146.82;100.00;71671.09;5073559;28;20354;-76
2023/08/19 08:05:02;;;;;;;9.95;8.95;;;;;;;-146.82;100.00;71671.09;5088560;28;20120;-77
2023/08/19 08:07:27;;;;;;;9.75;8.95;;;;;;;-146.82;100.00;71671.09;5073012;28;20552;-77
2023/08/19 08:09:53;;;;;;;10.25;9.27;;;;;;;-146.82;100.00;71671.09;5072865;28;20068;-77
2023/08/19 08:12:18;;;;;;;12.80;9.80;;;;;;;-146.82;100.00;71671.09;5073084;28;20059;-77
2023/08/19 08:14:44;;;;;;;10.65;9.65;;;;;;;-146.82;100.00;71671.09;5073314;28;20029;-78
2023/08/19 08:17:09;;;;;;;14.77;10.15;;;;;;;-146.82;100.00;71671.09;5071688;28;20042;-76
2023/08/19 08:19:34;;;;;;;11.82;9.35;;;;;;;-146.82;100.00;71671.09;5072986;28;20020;-76
2023/08/19 08:22:00;;;;;;;10.90;9.43;;;;;;;-146.82;100.00;71671.09;5072690;28;20104;-76
2023/08/19 08:24:25;;;;;;;9.38;8.55;;;;;;;-146.82;100.00;71671.09;5072658;28;20017;-76
2023/08/19 08:26:51;;;;;;;10.45;9.43;;;;;;;-146.82;100.00;71671.09;5071591;28;20017;-77
2023/08/19 08:29:17;;;;;;;9.35;8.52;;;;;;;-146.82;100.00;71671.09;5071588;28;20099;-76
2023/08/19 08:31:42;;;;;;;10.40;9.27;;;;;;;-146.82;100.00;71671.09;5073079;28;20490;-78
2023/08/19 08:34:07;;;;;;;11.43;9.90;;;;;;;-146.82;100.00;71671.09;5074249;28;20420;-78
2023/08/19 08:36:33;;;;;;;19.48;9.35;;;;;;;-146.82;100.00;71671.09;5076519;28;20039;-77
2023/08/19 08:38:58;;;;;;;10.45;9.43;;;;;;;-146.82;100.00;71671.09;5076439;28;20020;-78
2023/08/19 08:41:24;;;;;;;10.82;9.43;;;;;;;-146.82;100.00;71671.09;5076284;28;20020;-77
2023/08/19 08:43:50;;;;;;;11.00;10.00;;;;;;;-146.82;100.00;71671.09;5092453;28;20051;-77
2023/08/19 08:46:17;;;;;;;11.40;10.30;;;;;;;-146.82;100.00;71671.09;5092203;28;20040;-77
2023/08/19 08:48:43;;;;;;;10.68;9.07;;;;;;;-146.82;100.00;71671.09;5075658;28;20029;-76
2023/08/19 08:51:09;;;;;;;10.00;9.07;;;;;;;-146.82;100.00;71671.09;5091892;28;20020;-76
2023/08/19 08:53:35;;;;;;;11.20;9.38;;;;;;;-146.82;100.00;71671.09;5076265;28;20024;-77
2023/08/19 08:56:02;;;;;;;9.48;8.70;;;;;;;-146.82;100.00;71671.09;5091816;28;20500;-75
2023/08/19 08:58:27;;;;;;;17.85;8.65;;;;;;;-146.82;100.00;71671.09;5076305;28;20024;-76
2023/08/19 09:00:53;;;;;;;44.63;11.75;;;;;;;-146.82;100.00;71671.09;5075902;28;20029;-77
2023/08/19 09:03:30;;;;;;;14.18;10.82;;;;;;;-146.82;100.00;71671.09;5075987;28;20025;-77
2023/08/19 09:05:59;;;;;;;16.35;9.23;;;;;;;-146.82;100.00;71671.09;5075679;28;20029;-76
2023/08/19 09:08:31;;;;;;;16.25;10.02;;;;;;;-146.82;100.00;71671.09;5075863;28;20024;-76
2023/08/19 09:11:00;;;;;;;12.25;9.73;;;;;;;-146.82;100.00;71671.09;5074622;28;20016;-77
2023/08/19 09:13:27;;;;;;;10.63;9.63;;;;;;;-146.82;100.00;71671.09;5091089;28;20031;-77
2023/08/19 09:15:52;;;;;;;13.88;10.00;;;;;;;-146.82;100.00;71671.09;5074167;28;20031;-78
2023/08/19 09:18:18;;;;;;;10.30;9.30;;;;;;;-146.82;100.00;71671.09;5075262;28;20381;-76
2023/08/19 09:20:44;;;;;;;12.93;9.60;;;;;;;-146.82;100.00;71671.09;5074046;28;20118;-76
2023/08/19 09:23:10;;;;;;;10.75;9.18;;;;;;;-146.82;100.00;71671.09;5091085;28;20020;-75
2023/08/19 09:25:37;;;;;;;9.95;9.02;;;;;;;-146.82;100.00;71671.09;5075497;28;20035;-78
2023/08/19 09:28:03;;;;;;;11.95;9.77;;;;;;;-146.82;100.00;71671.09;5075387;28;20480;-78
2023/08/19 09:30:35;;;;;;;12.32;10.30;;;;;;;-146.82;100.00;71671.09;5075751;28;20020;-77
2023/08/19 09:33:01;;;;;;;11.82;10.73;;;;;;;-146.82;100.00;71671.09;5075161;28;20028;-77
2023/08/19 09:35:36;;;;;;;17.92;11.18;;;;;;;-146.82;100.00;71671.09;5073982;28;20078;-76
2023/08/19 09:38:02;;;;;;;11.30;9.50;;;;;;;-146.82;100.00;71671.09;5075496;28;20099;-75
2023/08/19 09:40:28;;;;;;;12.10;9.90;;;;;;;-146.82;100.00;71671.09;5075381;28;20073;-78
2023/08/19 09:42:56;;;;;;;11.55;10.35;;;;;;;-146.82;100.00;71671.09;5073893;28;20024;-77
2023/08/19 09:45:25;;;;;;;11.68;10.52;;;;;;;-146.82;100.00;71671.09;5074596;28;20111;-77
2023/08/19 09:47:52;;;;;;;16.55;10.13;;;;;;;-146.82;100.00;71671.09;5074993;28;20035;-76
2023/08/19 09:50:19;;;;;;;11.18;9.57;;;;;;;-146.82;100.00;71671.09;5075077;28;20027;-77
2023/08/19 09:52:59;;;;;;;11.40;10.30;;;;;;;-146.82;100.00;71671.09;5074825;28;20055;-76
2023/08/19 09:55:29;;;;;;;16.73;10.73;;;;;;;-146.82;100.00;71671.09;5075174;28;20094;-77
2023/08/19 09:57:56;;;;;;;14.65;10.95;;;;;;;-146.82;100.00;71671.09;5074905;28;20759;-77
2023/08/19 10:00:22;;;;;;;12.10;10.80;;;;;;;-146.82;100.00;71671.09;5090569;28;20107;-78
2023/08/19 10:02:47;;;;;;;11.15;10.05;;;;;;;-146.82;100.00;71671.09;5073348;28;20389;-77
2023/08/19 10:05:13;;;;;;;10.57;9.57;;;;;;;-146.82;100.00;71671.09;5074502;28;20055;-78
2023/08/19 10:07:41;;;;;;;11.68;10.50;;;;;;;-146.82;100.00;71671.09;5073354;28;20024;-77
2023/08/19 10:10:08;;;;;;;10.13;8.63;;;;;;;-146.82;100.00;71671.09;5090410;28;20046;-77
2023/08/19 10:12:35;;;;;;;9.07;8.13;;;;;;;-146.82;100.00;71671.09;5090205;28;20032;-78
2023/08/19 10:15:05;;;;;;;7.30;5.97;;;;;;;-146.82;100.00;71671.09;5056737;28;20045;-76
2023/08/19 10:17:32;;;;;;;9.05;5.72;;;;;;;-146.82;100.00;71671.09;5074608;28;20477;-76
2023/08/19 10:20:07;;;;;;;10.48;9.20;;;;;;;-146.82;100.00;71671.09;5073512;28;20028;-78
2023/08/19 10:22:36;;;;;;;7.93;7.18;;;;;;;-146.82;100.00;71671.09;5090037;28;20040;-77
2023/08/19 10:25:04;;;;;;;8.30;7.45;;;;;;;-146.82;100.00;71671.09;5072927;28;20028;-77
2023/08/19 10:27:29;;;;;;;8.77;6.97;;;;;;;-146.82;100.00;71671.09;5073474;28;20020;-77
2023/08/19 10:29:56;;;;;;;8.95;7.38;;;;;;;-146.82;100.00;71671.09;5074297;28;20024;-77
2023/08/19 10:32:29;;;;;;;6.93;6.32;;;;;;;-146.82;100.00;71671.09;5072851;28;20107;-75
2023/08/19 10:35:04;;;;;;;9.35;7.82;;;;;;;-146.82;100.00;71671.09;5074030;28;20108;-77
2023/08/19 10:37:30;;;;;;;9.82;8.57;;;;;;;-146.82;100.00;71671.09;5073953;28;20056;-76
2023/08/19 10:40:08;;;;;;;11.75;8.82;;;;;;;-146.82;100.00;71671.09;5073890;28;20063;-75
2023/08/19 10:42:33;;;;;;;12.32;8.98;;;;;;;-146.82;100.00;71671.09;5073803;28;20122;-75
2023/08/19 10:44:59;;;;;;;8.95;8.18;;;;;;;-146.82;100.00;71671.09;5074131;28;20048;-78
2023/08/19 10:47:24;;;;;;;9.00;8.10;;;;;;;-146.82;100.00;71671.09;5089543;28;20040;-77
2023/08/19 10:49:50;;;;;;;10.13;7.95;;;;;;;-146.82;100.00;71671.09;5072741;28;20075;-77
2023/08/19 10:52:21;;;;;;;11.35;8.93;;;;;;;-146.82;100.00;71671.09;5089407;28;20024;-78
2023/08/19 10:54:47;;;;;;;10.13;7.60;;;;;;;-146.82;100.00;71671.09;5073868;28;20082;-76